createdAt,value
2019-05-15T00:01:20.135Z,2.50
2019-05-15T00:03:49.569Z,2.60
2019-05-15T00:06:19.245Z,2.53
2019-05-15T00:08:48.782Z,2.50
2019-05-15T00:11:19.276Z,2.70
2019-05-15T00:13:48.906Z,2.20
2019-05-15T00:16:18.325Z,2.53
2019-05-15T00:18:48.264Z,2.97
2019-05-15T00:21:18.123Z,2.40
2019-05-15T00:23:49.513Z,2.87
2019-05-15T00:26:19.051Z,2.60
2019-05-15T00:28:48.475Z,2.57
2019-05-15T00:31:18.591Z,3.07
2019-05-15T00:33:48.333Z,3.03
2019-05-15T00:36:19.250Z,2.67
2019-05-15T00:38:48.822Z,2.60
2019-05-15T00:41:18.556Z,2.50
2019-05-15T00:43:49.451Z,2.57
2019-05-15T00:46:18.985Z,2.50
2019-05-15T00:48:48.913Z,2.80
2019-05-15T00:51:19.511Z,2.60
2019-05-15T00:53:49.172Z,2.60
2019-05-15T00:56:19.500Z,3.00
2019-05-15T00:58:48.983Z,2.70
2019-05-15T01:01:19.351Z,2.47
2019-05-15T01:03:49.332Z,2.60
2019-05-15T01:06:19.187Z,2.80
2019-05-15T01:08:48.717Z,2.53
2019-05-15T01:11:19.203Z,2.63
2019-05-15T01:13:48.633Z,2.70
2019-05-15T01:16:18.627Z,3.30
2019-05-15T01:18:49.108Z,2.60
2019-05-15T01:21:18.913Z,2.47
2019-05-15T01:23:48.586Z,2.57
2019-05-15T01:26:18.842Z,2.83
2019-05-15T01:28:49.597Z,3.20
2019-05-15T01:31:19.257Z,2.80
2019-05-15T01:33:48.887Z,2.63
2019-05-15T01:36:19.360Z,3.00
2019-05-15T01:38:48.811Z,2.67
2019-05-15T01:41:18.900Z,2.87
2019-05-15T01:43:49.113Z,3.00
2019-05-15T01:46:19.205Z,2.77
2019-05-15T01:48:49.319Z,2.97
2019-05-15T01:51:18.902Z,2.83
2019-05-15T01:53:48.430Z,2.83
2019-05-15T01:56:18.739Z,2.90
2019-05-15T01:58:48.805Z,3.30
2019-05-15T02:01:19.143Z,2.87
2019-05-15T02:03:49.274Z,2.87
2019-05-15T02:06:19.237Z,2.80
2019-05-15T02:08:49.742Z,3.20
2019-05-15T02:11:19.358Z,2.40
2019-05-15T02:13:48.730Z,3.07
2019-05-15T02:16:19.222Z,3.00
2019-05-15T02:18:49.217Z,3.20
2019-05-15T02:21:18.620Z,2.77
2019-05-15T02:23:48.333Z,3.10
2019-05-15T02:26:18.883Z,2.53
2019-05-15T02:28:48.920Z,3.10
2019-05-15T02:31:19.471Z,2.97
2019-05-15T02:33:49.986Z,3.27
2019-05-15T02:36:20.706Z,3.17
2019-05-15T02:38:50.319Z,2.97
2019-05-15T02:41:19.750Z,3.23
2019-05-15T02:43:50.097Z,2.67
2019-05-15T02:46:20.069Z,3.00
2019-05-15T02:48:49.484Z,2.83
2019-05-15T02:51:19.492Z,2.77
2019-05-15T02:53:50.047Z,2.60
2019-05-15T02:56:20.692Z,3.07
2019-05-15T02:58:50.225Z,2.63
2019-05-15T03:01:19.723Z,3.40
2019-05-15T03:03:50.122Z,3.30
2019-05-15T03:06:19.834Z,2.63
2019-05-15T03:08:49.957Z,3.03
2019-05-15T03:11:19.762Z,3.03
2019-05-15T03:13:50.392Z,2.90
2019-05-15T03:16:20.048Z,3.20
2019-05-15T03:18:50.623Z,2.83
2019-05-15T03:21:20.577Z,3.20
2019-05-15T03:23:50.913Z,3.13
2019-05-15T03:26:20.745Z,2.80
2019-05-15T03:28:50.106Z,3.33
2019-05-15T03:31:40.304Z,2.63
2019-05-15T03:33:54.292Z,2.83
2019-05-15T03:36:23.921Z,3.20
2019-05-15T03:38:52.824Z,2.90
2019-05-15T03:41:22.190Z,3.17
2019-05-15T03:43:51.648Z,3.00
2019-05-15T03:46:21.006Z,2.90
2019-05-15T03:48:50.378Z,3.40
2019-05-15T03:51:20.147Z,3.50
2019-05-15T03:53:49.998Z,2.87
2019-05-15T03:56:19.578Z,3.03
2019-05-15T03:58:49.547Z,3.47
2019-05-15T04:01:29.776Z,3.37
2019-05-15T04:03:50.259Z,3.20
2019-05-15T04:06:19.691Z,2.90
2019-05-15T04:08:49.806Z,3.23
2019-05-15T04:11:20.366Z,3.17
2019-05-15T04:13:50.311Z,3.10
2019-05-15T04:16:19.734Z,3.30
2019-05-15T04:18:49.375Z,2.63
2019-05-15T04:21:20.009Z,3.13
2019-05-15T04:23:51.174Z,3.40
2019-05-15T04:26:21.947Z,3.47
2019-05-15T04:28:54.493Z,3.20
2019-05-15T04:31:23.869Z,3.40
2019-05-15T04:33:53.238Z,3.60
2019-05-15T04:36:22.609Z,3.40
2019-05-15T04:38:51.988Z,3.50
2019-05-15T04:41:21.338Z,3.13
2019-05-15T04:43:50.715Z,3.50
2019-05-15T04:46:20.226Z,3.47
2019-05-15T04:48:50.467Z,2.47
2019-05-15T04:51:20.223Z,3.33
2019-05-15T04:53:50.418Z,3.10
2019-05-15T04:56:20.045Z,3.43
2019-05-15T04:58:50.674Z,3.63
2019-05-15T05:01:20.583Z,2.77
2019-05-15T05:03:50.061Z,3.00
2019-05-15T05:06:19.886Z,3.00
2019-05-15T05:08:50.069Z,3.30
2019-05-15T05:11:23.582Z,2.80
2019-05-15T05:13:50.789Z,3.00
2019-05-15T05:16:20.163Z,2.97
2019-05-15T05:18:50.009Z,3.03
2019-05-15T05:21:19.381Z,2.87
2019-05-15T05:23:48.749Z,3.10
2019-05-15T05:26:18.702Z,3.27
2019-05-15T05:28:49.050Z,2.63
2019-05-15T05:31:19.205Z,2.70
2019-05-15T05:33:48.864Z,3.10
2019-05-15T05:36:18.648Z,2.93
2019-05-15T05:38:49.310Z,2.57
2019-05-15T05:41:19.714Z,3.20
2019-05-15T05:43:49.154Z,2.77
2019-05-15T05:46:18.709Z,3.43
2019-05-15T05:48:49.002Z,2.90
2019-05-15T05:51:19.180Z,3.07
2019-05-15T05:53:48.783Z,5.27
2019-05-15T05:56:18.354Z,3.77
2019-05-15T05:58:49.143Z,3.07
2019-05-15T06:01:18.996Z,2.60
2019-05-15T06:03:49.243Z,2.73
2019-05-15T06:06:18.873Z,2.67
2019-05-15T06:08:48.268Z,2.23
2019-05-15T06:11:18.387Z,4.00
2019-05-15T06:13:52.349Z,2.60
2019-05-15T06:16:19.153Z,2.70
2019-05-15T06:18:49.312Z,2.17
2019-05-15T06:21:18.733Z,2.40
2019-05-15T06:23:55.336Z,2.40
2019-05-15T06:26:19.964Z,2.70
2019-05-15T06:28:49.501Z,2.00
2019-05-15T06:31:19.122Z,2.20
2019-05-15T06:33:49.028Z,1.93
2019-05-15T06:36:18.671Z,2.20
2019-05-15T06:38:48.871Z,3.50
2019-05-15T06:41:18.407Z,2.07
2019-05-15T06:43:48.376Z,2.10
2019-05-15T06:46:18.699Z,1.97
2019-05-15T06:48:48.735Z,1.50
2019-05-15T06:51:18.445Z,1.60
2019-05-15T06:53:49.126Z,1.70
2019-05-15T06:56:19.043Z,1.40
2019-05-15T06:58:48.693Z,1.67
2019-05-15T07:01:18.970Z,2.23
2019-05-15T07:03:48.665Z,2.30
2019-05-15T07:06:18.334Z,2.07
2019-05-15T07:08:49.652Z,2.07
2019-05-15T07:11:19.371Z,1.43
2019-05-15T07:13:49.449Z,1.77
2019-05-15T07:16:18.820Z,1.67
2019-05-15T07:18:48.664Z,1.63
2019-05-15T07:21:20.492Z,2.07
2019-05-15T07:23:49.749Z,1.70
2019-05-15T07:26:19.319Z,1.90
2019-05-15T07:28:48.792Z,1.63
2019-05-15T07:31:18.308Z,1.73
2019-05-15T07:33:49.111Z,1.90
2019-05-15T07:36:19.450Z,2.17
2019-05-15T07:38:48.901Z,1.60
2019-05-15T07:41:18.593Z,1.40
2019-05-15T07:43:49.405Z,1.50
2019-05-15T07:46:19.016Z,1.50
2019-05-15T07:48:49.215Z,1.60
2019-05-15T07:51:18.742Z,1.60
2019-05-15T07:53:48.952Z,1.53
2019-05-15T07:56:18.677Z,1.93
2019-05-15T07:58:52.534Z,1.33
2019-05-15T08:01:19.177Z,1.30
2019-05-15T08:03:59.042Z,1.40
2019-05-15T08:06:19.639Z,2.33
2019-05-15T08:08:49.015Z,1.83
2019-05-15T08:11:24.375Z,1.30
2019-05-15T08:13:49.492Z,1.43
2019-05-15T08:16:18.867Z,1.23
2019-05-15T08:18:48.490Z,1.20
2019-05-15T08:21:18.574Z,1.40
2019-05-15T08:23:48.584Z,1.07
2019-05-15T08:26:18.023Z,1.10
2019-05-15T08:28:48.675Z,1.40
2019-05-15T08:31:18.513Z,1.57
2019-05-15T08:33:48.314Z,1.23
2019-05-15T08:36:18.328Z,1.37
2019-05-15T08:38:48.655Z,1.20
2019-05-15T08:41:18.669Z,1.00
2019-05-15T08:43:48.655Z,1.10
2019-05-15T08:46:18.775Z,0.90
2019-05-15T08:48:49.076Z,1.20
2019-05-15T08:51:19.424Z,1.30
2019-05-15T08:53:48.997Z,1.27
2019-05-15T08:56:19.459Z,0.80
2019-05-15T08:58:48.999Z,1.00
2019-05-15T09:01:18.367Z,1.20
2019-05-15T09:03:48.877Z,0.90
2019-05-15T09:06:22.767Z,0.87
2019-05-15T09:08:50.048Z,0.80
2019-05-15T09:11:19.443Z,0.87
2019-05-15T09:13:53.665Z,0.90
2019-05-15T09:16:19.896Z,1.00
2019-05-15T09:18:49.274Z,0.70
2019-05-15T09:21:19.268Z,0.70
2019-05-15T09:23:50.008Z,1.00
2019-05-15T09:26:19.752Z,1.00
2019-05-15T09:28:49.583Z,0.83
2019-05-15T09:31:19.460Z,1.00
2019-05-15T09:33:49.378Z,0.70
2019-05-15T09:36:20.175Z,0.83
2019-05-15T09:38:50.061Z,0.93
2019-05-15T09:41:19.482Z,0.83
2019-05-15T09:43:48.862Z,0.80
2019-05-15T09:46:18.739Z,0.80
2019-05-15T09:48:51.576Z,0.77
2019-05-15T09:51:19.641Z,0.90
2019-05-15T09:53:49.086Z,0.80
2019-05-15T09:56:18.846Z,0.80
2019-05-15T09:58:48.959Z,0.77
2019-05-15T10:01:19.703Z,0.77
2019-05-15T10:03:49.364Z,0.60
2019-05-15T10:06:20.566Z,0.50
2019-05-15T10:08:49.842Z,0.70
2019-05-15T10:11:19.987Z,1.43
2019-05-15T10:13:49.437Z,0.70
2019-05-15T10:16:19.813Z,0.77
2019-05-15T10:18:50.785Z,0.93
2019-05-15T10:21:20.563Z,0.93
2019-05-15T10:23:49.947Z,1.17
2019-05-15T10:26:19.556Z,0.73
2019-05-15T10:28:49.587Z,0.70
2019-05-15T10:31:19.660Z,0.80
2019-05-15T10:33:49.428Z,0.60
2019-05-15T10:36:19.226Z,0.70
2019-05-15T10:38:49.182Z,0.73
2019-05-15T10:41:19.090Z,0.50
2019-05-15T10:43:56.030Z,0.50
2019-05-15T10:46:19.938Z,0.70
2019-05-15T10:48:49.662Z,0.70
2019-05-15T10:51:19.728Z,0.63
2019-05-15T10:53:49.327Z,0.87
2019-05-15T10:56:18.829Z,0.97
2019-05-15T10:58:50.542Z,0.80
2019-05-15T11:01:19.651Z,0.67
2019-05-15T11:03:49.749Z,0.80
2019-05-15T11:06:19.274Z,0.80
2019-05-15T11:08:51.418Z,0.90
2019-05-15T11:11:19.923Z,0.50
2019-05-15T11:13:49.314Z,0.73
2019-05-15T11:16:21.279Z,0.80
2019-05-15T11:18:53.321Z,0.80
2019-05-15T11:21:20.885Z,0.80
2019-05-15T11:23:50.307Z,0.97
2019-05-15T11:26:20.046Z,0.70
2019-05-15T11:28:50.061Z,0.80
2019-05-15T11:31:19.472Z,0.70
2019-05-15T11:33:49.394Z,0.80
2019-05-15T11:36:18.811Z,0.67
2019-05-15T11:38:48.738Z,0.70
2019-05-15T11:41:19.129Z,0.75
2019-05-15T11:43:49.626Z,0.70
2019-05-15T11:46:19.126Z,0.90
2019-05-15T11:48:49.783Z,0.90
2019-05-15T11:51:19.420Z,1.20
2019-05-15T11:53:49.316Z,1.10
2019-05-15T11:56:19.228Z,0.98
2019-05-15T11:58:48.665Z,0.80
2019-05-15T12:01:19.246Z,0.80
2019-05-15T12:03:49.132Z,1.00
2019-05-15T12:06:22.635Z,0.70
2019-05-15T12:08:49.599Z,0.80
2019-05-15T12:11:31.738Z,1.12
2019-05-15T12:13:50.086Z,1.02
2019-05-15T12:16:19.460Z,0.93
2019-05-15T12:18:48.839Z,1.00
2019-05-15T12:21:19.912Z,0.80
2019-05-15T12:23:49.614Z,0.62
2019-05-15T12:26:18.949Z,1.00
2019-05-15T12:28:49.030Z,0.85
2019-05-15T12:31:24.295Z,1.00
2019-05-15T12:33:49.837Z,0.93
2019-05-15T12:36:46.137Z,0.95
2019-05-15T12:38:50.629Z,0.90
2019-05-15T13:01:29.680Z,1.17
2019-05-15T13:03:59.059Z,0.85
2019-05-15T13:06:29.382Z,1.10
2019-05-15T13:08:59.482Z,1.12
2019-05-15T13:11:29.014Z,1.00
2019-05-15T13:13:59.089Z,1.85
2019-05-15T13:16:28.946Z,1.40
2019-05-15T13:18:58.872Z,0.90
2019-05-15T13:21:29.628Z,1.15
2019-05-15T13:23:59.104Z,1.15
2019-05-15T13:26:28.481Z,0.90
2019-05-15T13:28:58.455Z,0.93
2019-05-15T13:31:28.577Z,0.80
2019-05-15T13:33:58.759Z,1.52
2019-05-15T13:36:28.981Z,0.85
2019-05-15T13:38:58.742Z,1.02
2019-05-15T13:41:28.472Z,0.82
2019-05-15T13:43:58.517Z,0.90
2019-05-15T13:46:29.017Z,0.70
2019-05-15T13:48:59.551Z,0.90
2019-05-15T13:51:29.291Z,0.70
2019-05-15T13:53:58.638Z,0.80
2019-05-15T13:56:28.973Z,0.80
2019-05-15T13:58:58.807Z,1.10
2019-05-15T14:01:28.823Z,0.70
2019-05-15T14:03:58.829Z,0.70
2019-05-15T14:06:28.781Z,0.70
2019-05-15T14:08:58.306Z,0.90
2019-05-15T14:11:30.879Z,0.78
2019-05-15T14:13:59.485Z,1.10
2019-05-15T14:16:29.236Z,0.85
2019-05-15T14:18:58.916Z,0.80
2019-05-15T14:21:29.805Z,0.80
2019-05-15T14:24:01.530Z,1.12
2019-05-15T14:26:30.548Z,1.27
2019-05-15T14:28:59.920Z,1.20
2019-05-15T14:31:29.304Z,0.72
2019-05-15T14:33:58.685Z,0.90
2019-05-15T14:36:28.754Z,0.90
2019-05-15T14:38:58.817Z,0.98
2019-05-15T14:41:29.524Z,0.88
2019-05-15T14:44:11.838Z,1.55
2019-05-15T14:46:30.010Z,1.20
2019-05-15T14:48:59.388Z,1.05
2019-05-15T14:51:28.759Z,0.95
2019-05-15T14:53:58.460Z,1.10
2019-05-15T14:56:27.965Z,0.95
2019-05-15T14:58:58.600Z,1.05
2019-05-15T15:01:27.994Z,1.15
2019-05-15T15:03:58.120Z,1.30
2019-05-15T15:06:27.723Z,1.30
2019-05-15T15:08:59.237Z,1.00
2019-05-15T15:11:28.633Z,0.93
2019-05-15T15:13:58.007Z,0.80
2019-05-15T15:16:29.159Z,1.15
2019-05-15T15:18:58.585Z,1.20
2019-05-15T15:21:29.297Z,1.12
2019-05-15T15:23:58.919Z,1.05
2019-05-15T15:26:28.728Z,1.17
2019-05-15T15:28:59.013Z,1.27
2019-05-15T15:31:29.017Z,1.00
2019-05-15T15:33:58.632Z,0.88
2019-05-15T15:36:28.650Z,0.90
2019-05-15T15:38:58.826Z,0.82
2019-05-15T15:41:28.690Z,1.10
2019-05-15T15:43:58.809Z,1.00
2019-05-15T15:46:28.847Z,1.02
2019-05-15T15:48:59.807Z,1.10
2019-05-15T15:51:29.460Z,1.25
2019-05-15T15:53:58.835Z,1.25
2019-05-15T15:56:29.093Z,1.37
2019-05-15T15:58:59.398Z,1.40
2019-05-15T16:01:31.424Z,1.05
2019-05-15T16:04:00.091Z,1.10
2019-05-15T16:06:29.609Z,1.50
2019-05-15T16:08:59.783Z,1.27
2019-05-15T16:11:29.126Z,0.90
2019-05-15T16:13:58.768Z,1.20
2019-05-15T16:16:28.590Z,1.60
2019-05-15T16:18:58.275Z,1.42
2019-05-15T16:21:28.887Z,1.30
2019-05-15T16:23:58.449Z,1.42
2019-05-15T16:26:29.041Z,1.22
2019-05-15T16:29:01.718Z,1.30
2019-05-15T16:31:29.552Z,1.27
2019-05-15T16:33:59.632Z,1.12
2019-05-15T16:36:29.004Z,0.78
2019-05-15T16:39:07.812Z,1.30
2019-05-15T16:41:29.514Z,1.52
2019-05-15T16:43:58.882Z,1.50
2019-05-15T16:46:28.320Z,1.50
2019-05-15T16:48:58.590Z,1.27
2019-05-15T16:51:32.274Z,1.30
2019-05-15T16:54:00.044Z,1.47
2019-05-15T16:56:29.420Z,1.57
2019-05-15T16:58:59.690Z,1.80
2019-05-15T17:01:29.273Z,1.27
2019-05-15T17:03:58.921Z,1.50
2019-05-15T17:06:28.310Z,1.60
2019-05-15T17:08:58.049Z,1.70
2019-05-15T17:11:28.911Z,1.30
2019-05-15T17:13:59.265Z,2.77
2019-05-15T17:16:28.860Z,2.02
2019-05-15T17:18:58.506Z,1.95
2019-05-15T17:21:28.478Z,1.90
2019-05-15T17:23:58.312Z,2.00
2019-05-15T17:26:28.743Z,1.95
2019-05-15T17:28:58.406Z,1.90
2019-05-15T17:31:28.672Z,2.15
2019-05-15T17:33:58.440Z,2.47
2019-05-15T17:36:31.799Z,1.70
2019-05-15T17:38:59.002Z,2.15
2019-05-15T17:41:28.723Z,2.27
2019-05-15T17:43:58.251Z,1.80
2019-05-15T17:46:29.571Z,2.15
2019-05-15T17:49:07.065Z,2.33
2019-05-15T17:51:29.926Z,5.83
2019-05-15T17:53:59.315Z,18.37
2019-05-15T17:56:28.817Z,8.50
2019-05-15T17:58:58.310Z,8.08
2019-05-15T18:01:28.223Z,2.25
2019-05-15T18:03:59.343Z,1.82
2019-05-15T18:06:29.195Z,1.67
2019-05-15T18:08:59.319Z,1.47
2019-05-15T18:11:29.067Z,1.62
2019-05-15T18:13:58.441Z,1.52
2019-05-15T18:16:27.825Z,1.60
2019-05-15T18:18:58.605Z,1.55
2019-05-15T18:21:29.044Z,1.50
2019-05-15T18:23:58.801Z,1.60
2019-05-15T18:26:28.186Z,1.77
2019-05-15T18:28:58.393Z,2.00
2019-05-15T18:31:28.747Z,1.95
2019-05-15T18:33:58.984Z,1.85
2019-05-15T18:36:28.681Z,1.45
2019-05-15T18:38:58.901Z,1.52
2019-05-15T18:41:28.643Z,1.60
2019-05-15T18:43:58.066Z,1.60
2019-05-15T18:46:28.892Z,1.80
2019-05-15T18:48:58.419Z,1.50
2019-05-15T18:51:28.119Z,1.32
2019-05-15T18:53:58.772Z,1.70
2019-05-15T18:56:29.750Z,1.50
2019-05-15T18:58:59.395Z,1.57
2019-05-15T19:01:28.766Z,1.67
2019-05-15T19:04:00.495Z,1.50
2019-05-15T19:06:29.890Z,1.33
2019-05-15T19:08:59.247Z,1.40
2019-05-15T19:11:28.977Z,1.30
2019-05-15T19:13:59.040Z,1.40
2019-05-15T19:16:31.528Z,1.37
2019-05-15T19:18:59.720Z,1.90
2019-05-15T19:21:29.282Z,1.83
2019-05-15T19:23:58.655Z,1.63
2019-05-15T19:26:28.992Z,1.23
2019-05-15T19:28:59.313Z,1.27
2019-05-15T19:31:30.629Z,1.27
2019-05-15T19:33:59.959Z,1.40
2019-05-15T19:36:29.721Z,1.30
2019-05-15T19:38:59.101Z,1.70
2019-05-15T19:41:28.925Z,1.57
2019-05-15T19:43:58.325Z,1.20
2019-05-15T19:46:28.245Z,1.40
2019-05-15T19:48:58.240Z,1.80
2019-05-15T19:51:28.961Z,1.87
2019-05-15T19:53:58.894Z,1.30
2019-05-15T19:56:28.350Z,1.47
2019-05-15T19:58:58.179Z,2.03
2019-05-15T20:01:28.184Z,1.70
2019-05-15T20:03:58.724Z,1.70
2019-05-15T20:06:28.521Z,1.70
2019-05-15T20:08:58.730Z,1.50
2019-05-15T20:11:28.154Z,1.77
2019-05-15T20:13:58.402Z,1.37
2019-05-15T20:16:28.389Z,1.70
2019-05-15T20:18:58.261Z,1.47
2019-05-15T20:21:28.990Z,1.57
2019-05-15T20:23:58.824Z,1.60
2019-05-15T20:26:28.785Z,1.50
2019-05-15T20:28:58.170Z,1.97
2019-05-15T20:31:28.416Z,1.77
2019-05-15T20:34:05.683Z,1.60
2019-05-15T20:36:30.270Z,1.43
2019-05-15T20:39:00.026Z,1.77
2019-05-15T20:41:29.443Z,1.50
2019-05-15T20:43:58.820Z,1.50
2019-05-15T20:46:28.923Z,1.90
2019-05-15T20:48:58.482Z,1.63
2019-05-15T20:51:29.035Z,2.07
2019-05-15T20:53:58.500Z,2.13
2019-05-15T20:56:28.417Z,1.53
2019-05-15T20:58:58.367Z,2.30
2019-05-15T21:01:28.771Z,1.63
2019-05-15T21:03:59.508Z,1.80
2019-05-15T21:06:33.929Z,1.87
2019-05-15T21:09:04.140Z,3.70
2019-05-15T21:11:33.514Z,2.27
2019-05-15T21:14:03.009Z,2.00
2019-05-15T21:16:32.387Z,1.90
2019-05-15T21:19:01.765Z,2.43
2019-05-15T21:21:31.158Z,2.10
2019-05-15T21:24:00.979Z,2.47
2019-05-15T21:26:30.485Z,3.00
2019-05-15T21:28:59.935Z,2.40
2019-05-15T21:31:29.327Z,2.00
2019-05-15T21:33:58.954Z,2.13
2019-05-15T21:36:31.307Z,3.20
2019-05-15T21:38:59.486Z,2.70
2019-05-15T21:41:28.865Z,2.03
2019-05-15T21:43:59.333Z,2.40
2019-05-15T21:46:28.810Z,2.00
2019-05-15T21:49:00.772Z,2.17
2019-05-15T21:51:29.266Z,2.70
2019-05-15T21:54:01.293Z,2.50
2019-05-15T21:56:29.798Z,2.40
2019-05-15T21:59:01.226Z,3.00
2019-05-15T22:01:30.747Z,2.53
2019-05-15T22:04:00.356Z,3.87
2019-05-15T22:06:29.754Z,7.50
2019-05-15T22:08:59.142Z,15.00
2019-05-15T22:11:29.707Z,4.53
2019-05-15T22:13:59.246Z,2.20
2019-05-15T22:16:28.974Z,2.20
2019-05-15T22:18:58.378Z,2.47
2019-05-15T22:21:27.786Z,2.70
2019-05-15T22:23:59.847Z,2.43
2019-05-15T22:26:28.971Z,2.70
2019-05-15T22:28:58.645Z,2.93
2019-05-15T22:31:28.271Z,2.33
2019-05-15T22:33:58.503Z,2.50
2019-05-15T22:36:28.194Z,2.67
2019-05-15T22:38:59.397Z,2.60
2019-05-15T22:41:28.890Z,3.30
2019-05-15T22:43:58.277Z,2.87
2019-05-15T22:46:29.017Z,2.37
2019-05-15T22:48:59.137Z,3.03
2019-05-15T22:51:28.935Z,2.07
2019-05-15T22:53:58.455Z,3.10
2019-05-15T22:56:29.720Z,2.73
2019-05-15T22:58:58.921Z,2.67
2019-05-15T23:01:28.302Z,2.80
2019-05-15T23:03:58.366Z,2.50
2019-05-15T23:06:28.265Z,3.10
2019-05-15T23:08:58.190Z,3.20
2019-05-15T23:11:29.736Z,2.63
2019-05-15T23:13:58.783Z,2.73
2019-05-15T23:16:28.449Z,2.90
2019-05-15T23:18:58.835Z,2.90
2019-05-15T23:21:28.810Z,3.27
2019-05-15T23:23:58.344Z,2.90
2019-05-15T23:26:28.328Z,2.67
2019-05-15T23:28:58.551Z,3.30
2019-05-15T23:31:28.192Z,2.70
2019-05-15T23:33:57.592Z,2.97
2019-05-15T23:36:28.449Z,2.73
2019-05-15T23:38:58.386Z,3.20
2019-05-15T23:41:28.182Z,3.47
2019-05-15T23:43:57.523Z,2.97
2019-05-15T23:46:28.819Z,2.93
2019-05-15T23:48:58.832Z,2.73
2019-05-15T23:51:28.377Z,3.17
2019-05-15T23:53:58.754Z,2.87
2019-05-15T23:56:29.110Z,3.30
2019-05-15T23:58:58.654Z,3.40
